createdAt,value
2022-10-22T00:00:30.189Z,9.2
2022-10-22T00:03:30.191Z,9.6
2022-10-22T00:06:30.221Z,9.8
2022-10-22T00:09:30.201Z,9.7
2022-10-22T00:12:30.198Z,10.1
2022-10-22T00:15:30.198Z,10.1
2022-10-22T00:18:30.200Z,10.6
2022-10-22T00:21:30.200Z,10.7
2022-10-22T00:24:30.231Z,10.7
2022-10-22T00:27:30.207Z,10.4
2022-10-22T00:30:30.210Z,9.8
2022-10-22T00:33:30.206Z,9.9
2022-10-22T00:36:30.212Z,9.3
2022-10-22T00:39:30.209Z,9.3
2022-10-22T00:42:30.234Z,8.9
2022-10-22T00:45:30.216Z,8.9
2022-10-22T00:48:30.237Z,8.9
2022-10-22T00:51:30.241Z,8.8
2022-10-22T00:54:30.247Z,8.8
2022-10-22T00:57:30.264Z,8.4
2022-10-22T01:00:30.364Z,9
2022-10-22T01:03:30.293Z,9
2022-10-22T01:06:30.307Z,8.9
2022-10-22T01:09:30.325Z,9
2022-10-22T01:12:30.345Z,8.9
2022-10-22T01:15:30.368Z,9.4
2022-10-22T01:18:30.414Z,8.6
2022-10-22T01:21:30.404Z,9.5
2022-10-22T01:24:30.421Z,9
2022-10-22T01:27:30.443Z,9
2022-10-22T01:30:30.458Z,9.6
2022-10-22T01:33:30.473Z,9.4
2022-10-22T01:36:30.517Z,9.1
2022-10-22T01:39:30.502Z,9.3
2022-10-22T01:42:30.513Z,9.8
2022-10-22T01:45:30.534Z,9.4
2022-10-22T01:48:30.558Z,9.6
2022-10-22T01:51:30.576Z,10.1
2022-10-22T01:54:30.619Z,10
2022-10-22T01:57:30.606Z,10
2022-10-22T02:00:30.690Z,10.5
2022-10-22T02:03:30.636Z,10.8
2022-10-22T02:06:30.650Z,10.6
2022-10-22T02:09:30.670Z,11.7
2022-10-22T02:12:30.708Z,13.1
2022-10-22T02:15:30.710Z,16.1
2022-10-22T02:18:30.725Z,17
2022-10-22T02:21:30.744Z,18.1
2022-10-22T02:24:30.756Z,19
2022-10-22T02:27:30.772Z,20.5
2022-10-22T02:30:30.812Z,21.9
2022-10-22T02:33:30.800Z,22.5
2022-10-22T02:36:30.824Z,24.1
2022-10-22T02:39:30.836Z,23.9
2022-10-22T02:42:30.847Z,23.4
2022-10-22T02:45:30.871Z,23.5
2022-10-22T02:48:30.906Z,22.9
2022-10-22T02:51:30.899Z,22
2022-10-22T02:54:30.925Z,21.8
2022-10-22T02:57:30.954Z,21.4
2022-10-22T03:00:30.995Z,20.1
2022-10-22T03:03:31.005Z,18.6
2022-10-22T03:06:31.058Z,17.1
2022-10-22T03:09:31.058Z,16.5
2022-10-22T03:12:31.082Z,15.3
2022-10-22T03:15:31.101Z,15.2
2022-10-22T03:18:31.122Z,14.7
2022-10-22T03:21:31.136Z,14.5
2022-10-22T03:24:31.190Z,14.1
2022-10-22T03:27:31.184Z,14.6
2022-10-22T03:30:31.200Z,14.6
2022-10-22T03:33:31.229Z,14.9
2022-10-22T03:36:31.244Z,14.9
2022-10-22T03:39:31.263Z,15.7
2022-10-22T03:42:31.421Z,15.3
2022-10-22T03:45:31.376Z,15.3
2022-10-22T03:48:31.440Z,15.3
2022-10-22T03:51:31.364Z,15.1
2022-10-22T03:54:31.405Z,14.9
2022-10-22T03:57:31.454Z,15.8
2022-10-22T04:00:31.453Z,15.9
2022-10-22T04:03:31.453Z,16.5
2022-10-22T04:06:31.475Z,16.7
2022-10-22T04:09:31.496Z,17.3
2022-10-22T04:12:31.516Z,16.7
2022-10-22T04:15:31.524Z,16.5
2022-10-22T04:18:31.572Z,16.7
2022-10-22T04:21:31.575Z,17.2
2022-10-22T04:24:31.599Z,16.5
2022-10-22T04:27:31.618Z,17.2
2022-10-22T04:30:31.632Z,17.6
2022-10-22T04:33:31.655Z,17.2
2022-10-22T04:36:31.708Z,16.2
2022-10-22T04:39:31.713Z,16.2
2022-10-22T04:42:31.733Z,15.9
2022-10-22T04:45:31.764Z,15.5
2022-10-22T04:48:31.780Z,15.3
2022-10-22T04:51:31.807Z,15.2
2022-10-22T04:54:32.950Z,14.5
2022-10-22T04:57:31.848Z,14.2
2022-10-22T05:00:31.864Z,13.9
2022-10-22T05:03:31.891Z,13.5
2022-10-22T05:06:31.908Z,13.8
2022-10-22T05:09:31.926Z,12.9
2022-10-22T05:12:31.973Z,14
2022-10-22T05:15:31.966Z,13.2
2022-10-22T05:18:31.988Z,13.3
2022-10-22T05:21:31.990Z,13.6
2022-10-22T05:24:32.024Z,13.1
2022-10-22T05:27:32.048Z,13.5
2022-10-22T05:30:32.221Z,13.1
2022-10-22T05:33:32.097Z,13.8
2022-10-22T05:36:32.125Z,14.1
2022-10-22T05:39:32.145Z,13.9
2022-10-22T05:42:32.180Z,14.6
2022-10-22T05:45:32.197Z,14.1
2022-10-22T05:51:32.238Z,14.5
2022-10-22T05:54:32.258Z,14.7
2022-10-22T05:57:32.281Z,15.5
2022-10-22T06:00:32.305Z,14.8
2022-10-22T06:03:32.317Z,14.1
2022-10-22T06:06:32.361Z,15.5
2022-10-22T06:09:32.383Z,16.1
2022-10-22T06:12:32.374Z,16.4
2022-10-22T06:15:32.407Z,16.4
2022-10-22T06:18:32.432Z,16.6
2022-10-22T06:21:32.457Z,16.9
2022-10-22T06:24:32.513Z,17.6
2022-10-22T06:27:32.506Z,17.4
2022-10-22T06:30:32.531Z,16.6
2022-10-22T06:33:32.555Z,17.4
2022-10-22T06:36:32.678Z,16.6
2022-10-22T06:39:32.605Z,16.5
2022-10-22T06:42:32.650Z,16.5
2022-10-22T06:45:32.645Z,16.3
2022-10-22T06:48:32.668Z,16.3
2022-10-22T06:51:32.694Z,15.8
2022-10-22T06:54:32.715Z,15.5
2022-10-22T06:57:32.737Z,15
2022-10-22T07:03:32.795Z,14.1
2022-10-22T07:06:32.796Z,13.6
2022-10-22T07:09:32.831Z,13.8
2022-10-22T07:12:32.852Z,13.4
2022-10-22T07:15:32.874Z,13
2022-10-22T07:18:32.931Z,12.1
2022-10-22T07:21:32.922Z,11.6
2022-10-22T07:24:32.942Z,11.4
2022-10-22T07:27:32.980Z,10.8
2022-10-22T07:30:33.000Z,9.7
2022-10-22T07:33:33.031Z,9.1
2022-10-22T07:36:33.074Z,8.7
2022-10-22T07:39:33.070Z,8.2
2022-10-22T07:42:33.098Z,8.4
2022-10-22T07:45:33.124Z,8
2022-10-22T07:48:33.143Z,7.6
2022-10-22T07:51:33.156Z,7.8
2022-10-22T07:54:33.179Z,7.3
2022-10-22T07:57:33.178Z,7.5
2022-10-22T08:00:33.197Z,8
2022-10-22T08:03:33.204Z,7.8
2022-10-22T08:06:33.214Z,7.9
2022-10-22T08:09:33.209Z,6.6
2022-10-22T08:12:33.255Z,6.7
2022-10-22T08:15:33.262Z,6.2
2022-10-22T08:18:33.223Z,5.9
2022-10-22T08:21:33.227Z,5.7
2022-10-22T08:24:33.232Z,5.7
2022-10-22T08:27:33.238Z,5.8
2022-10-22T08:30:33.274Z,5.7
2022-10-22T08:33:33.244Z,6.1
2022-10-22T08:36:33.242Z,5.3
2022-10-22T08:39:33.248Z,4.8
2022-10-22T08:42:33.253Z,4.7
2022-10-22T08:45:33.255Z,4.6
2022-10-22T08:48:33.278Z,4.3
2022-10-22T08:51:33.253Z,3.8
2022-10-22T08:54:33.258Z,4.1
2022-10-22T08:57:33.264Z,4.2
2022-10-22T09:00:33.267Z,3.8
2022-10-22T09:03:33.276Z,3.4
2022-10-22T09:06:33.292Z,3.4
2022-10-22T09:09:33.274Z,3.1
2022-10-22T09:12:33.275Z,3.1
2022-10-22T09:15:33.271Z,2.8
2022-10-22T09:18:33.278Z,2.6
2022-10-22T09:21:33.276Z,2.7
2022-10-22T09:24:33.352Z,2.4
2022-10-22T09:27:33.280Z,2.3
2022-10-22T09:30:33.282Z,2.3
2022-10-22T09:33:33.280Z,2.3
2022-10-22T09:36:33.276Z,2.4
2022-10-22T09:39:33.280Z,2.4
2022-10-22T09:42:33.308Z,2.3
2022-10-22T09:45:33.283Z,2.5
2022-10-22T09:48:33.292Z,2.4
2022-10-22T09:51:33.289Z,2.1
2022-10-22T09:54:33.288Z,2.1
2022-10-22T09:57:33.288Z,2
2022-10-22T10:00:33.316Z,2.2
2022-10-22T10:03:33.308Z,2.2
2022-10-22T10:06:33.296Z,2.3
2022-10-22T10:09:33.293Z,2.4
2022-10-22T10:12:33.364Z,2.6
2022-10-22T10:15:33.299Z,2.2
2022-10-22T10:18:33.329Z,2.4
2022-10-22T10:21:33.305Z,2.2
2022-10-22T10:24:33.315Z,2.4
2022-10-22T10:27:33.315Z,2
2022-10-22T10:30:33.313Z,2.2
2022-10-22T10:33:33.314Z,2.3
2022-10-22T10:36:33.335Z,2.5
2022-10-22T10:39:33.316Z,2.7
2022-10-22T10:42:33.319Z,2.4
2022-10-22T10:45:33.316Z,2.4
2022-10-22T10:48:33.315Z,2.4
2022-10-22T10:51:33.321Z,2.1
2022-10-22T10:54:33.403Z,2.2
2022-10-22T10:57:33.321Z,2.1
2022-10-22T11:00:33.325Z,2.1
2022-10-22T11:03:33.337Z,2.4
2022-10-22T11:06:33.329Z,2.4
2022-10-22T11:09:33.336Z,2.4
2022-10-22T11:12:33.363Z,2.3
2022-10-22T11:15:33.330Z,2
2022-10-22T11:18:33.331Z,2.1
2022-10-22T11:21:33.343Z,1.9
2022-10-22T11:24:33.335Z,1.7
2022-10-22T11:27:33.337Z,1.8
2022-10-22T11:30:33.365Z,2
2022-10-22T11:33:33.536Z,1.8
2022-10-22T11:36:33.347Z,1.9
2022-10-22T11:39:33.345Z,1.9
2022-10-22T11:42:33.353Z,1.9
2022-10-22T11:45:33.347Z,1.8
2022-10-22T11:48:33.378Z,2
2022-10-22T11:51:33.362Z,2
2022-10-22T11:54:33.371Z,2.3
2022-10-22T11:57:33.370Z,2.1
2022-10-22T12:00:33.371Z,2.1
2022-10-22T12:03:33.369Z,2.1
2022-10-22T12:06:33.397Z,2.1
2022-10-22T12:09:33.391Z,2.2
2022-10-22T12:12:33.383Z,2.3
2022-10-22T12:15:33.391Z,2.5
2022-10-22T12:18:33.390Z,2.2
2022-10-22T12:21:33.398Z,2.3
2022-10-22T12:24:33.414Z,2.5
2022-10-22T12:27:33.392Z,2.4
2022-10-22T12:30:33.395Z,2.2
2022-10-22T12:33:33.398Z,2.1
2022-10-22T12:36:33.405Z,2.2
2022-10-22T12:39:33.412Z,2.4
2022-10-22T12:42:33.439Z,2.2
2022-10-22T12:45:33.421Z,2.4
2022-10-22T12:48:33.414Z,2.2
2022-10-22T12:51:33.421Z,2.3
2022-10-22T12:54:33.417Z,2.5
2022-10-22T12:57:33.432Z,2.4
2022-10-22T13:00:33.499Z,2.4
2022-10-22T13:03:33.425Z,2.5
2022-10-22T13:06:33.432Z,2.3
2022-10-22T13:09:36.245Z,2.4
2022-10-22T13:12:33.445Z,2.5
2022-10-22T13:15:33.443Z,2.8
2022-10-22T13:18:33.473Z,2.6
2022-10-22T13:21:33.445Z,2.5
2022-10-22T13:24:33.451Z,2.4
2022-10-22T13:27:33.450Z,2.5
2022-10-22T13:30:33.458Z,2.7
2022-10-22T13:33:33.466Z,2.7
2022-10-22T13:36:33.488Z,2.7
2022-10-22T13:39:33.470Z,2.8
2022-10-22T13:42:33.469Z,2.8
2022-10-22T13:45:33.480Z,2.8
2022-10-22T13:48:33.481Z,2.7
2022-10-22T13:51:33.482Z,2.6
2022-10-22T13:54:33.515Z,2.5
2022-10-22T13:57:33.498Z,2.7
2022-10-22T14:00:33.532Z,2.4
2022-10-22T14:03:33.515Z,2.5
2022-10-22T14:06:33.557Z,2.5
2022-10-22T14:09:44.239Z,2.1
2022-10-22T14:13:49.363Z,2.3
2022-10-22T14:16:49.386Z,2
2022-10-22T14:19:49.396Z,2.2
2022-10-22T14:22:49.415Z,2.2
2022-10-22T14:25:49.453Z,2.4
2022-10-22T14:29:08.593Z,2.3
2022-10-22T14:31:49.471Z,2.2
2022-10-22T14:34:49.493Z,2.1
2022-10-22T14:37:49.509Z,2.1
2022-10-22T14:40:49.532Z,2.4
2022-10-22T14:43:49.568Z,2.4
2022-10-22T14:46:49.563Z,2.3
2022-10-22T14:49:49.576Z,2.6
2022-10-22T14:52:49.605Z,2.5
2022-10-22T14:55:49.636Z,2.5
2022-10-22T14:58:49.645Z,2.6
2022-10-22T15:01:49.693Z,2.5
2022-10-22T15:04:49.746Z,2.6
2022-10-22T15:07:49.708Z,2.6
2022-10-22T15:10:49.729Z,2.6
2022-10-22T15:13:49.751Z,2.9
2022-10-22T15:16:49.766Z,3.7
2022-10-22T15:19:49.807Z,4.3
2022-10-22T15:22:49.813Z,4.5
2022-10-22T15:25:49.833Z,3
2022-10-22T15:28:49.848Z,2.2
2022-10-22T15:31:49.881Z,2.1
2022-10-22T15:34:49.895Z,2
2022-10-22T15:37:49.936Z,2.1
2022-10-22T15:40:49.931Z,2.2
2022-10-22T15:43:50.004Z,2.4
2022-10-22T15:49:50.014Z,2.3
2022-10-22T15:52:50.038Z,2.5
2022-10-22T15:55:50.079Z,2.5
2022-10-22T15:58:50.075Z,2.6
2022-10-22T16:01:50.095Z,2.6
2022-10-22T16:04:50.113Z,3.3
2022-10-22T16:07:50.118Z,2.7
2022-10-22T16:10:50.137Z,2.4
2022-10-22T16:13:50.191Z,3
2022-10-22T16:16:50.192Z,2.8
2022-10-22T16:19:50.219Z,3.1
2022-10-22T16:22:50.240Z,3.4
2022-10-22T16:25:50.269Z,3.9
2022-10-22T16:28:50.292Z,4.7
2022-10-22T16:31:50.330Z,4.9
2022-10-22T16:34:50.326Z,5.8
2022-10-22T16:37:50.359Z,4.5
2022-10-22T16:40:50.371Z,4.9
2022-10-22T16:43:50.401Z,5.1
2022-10-22T16:46:50.426Z,5.3
2022-10-22T16:49:50.459Z,5.5
2022-10-22T16:52:50.458Z,5
2022-10-22T16:55:50.471Z,5.4
2022-10-22T16:58:50.480Z,5.3
2022-10-22T17:01:57.409Z,5.6
2022-10-22T17:04:57.411Z,4.9
2022-10-22T17:07:57.397Z,4.6
2022-10-22T17:10:57.421Z,4.7
2022-10-22T17:13:57.432Z,4.7
2022-10-22T17:16:57.467Z,4.3
2022-10-22T17:19:57.485Z,4.1
2022-10-22T17:22:57.534Z,4.2
2022-10-22T17:25:57.531Z,4.3
2022-10-22T17:28:57.552Z,4
2022-10-22T17:31:57.570Z,4.2
2022-10-22T17:34:57.603Z,3.9
2022-10-22T17:37:57.628Z,4.1
2022-10-22T17:40:58.536Z,4.2
2022-10-22T17:43:57.673Z,3.9
2022-10-22T17:46:57.697Z,4
2022-10-22T17:49:57.725Z,4.1
2022-10-22T17:52:57.748Z,4.5
2022-10-22T17:55:57.770Z,4.8
2022-10-22T17:58:57.811Z,5.2
2022-10-22T18:01:59.443Z,4.5
2022-10-22T18:04:57.827Z,5.2
2022-10-22T18:07:57.852Z,5.6
2022-10-22T18:10:57.881Z,5.9
2022-10-22T18:13:57.898Z,4.7
2022-10-22T18:16:57.954Z,4.7
2022-10-22T18:19:57.941Z,5
2022-10-22T18:22:57.959Z,5
2022-10-22T18:25:57.998Z,5.5
2022-10-22T18:28:58.020Z,5.3
2022-10-22T18:31:58.036Z,5.6
2022-10-22T18:34:58.084Z,5.8
2022-10-22T18:37:58.073Z,6.6
2022-10-22T18:40:58.101Z,5.3
2022-10-22T18:43:58.127Z,4.6
2022-10-22T18:46:58.151Z,4.2
2022-10-22T18:49:58.169Z,3.8
2022-10-22T18:52:58.212Z,3.1
2022-10-22T18:55:58.190Z,3.4
2022-10-22T18:58:58.216Z,3.2
2022-10-22T19:01:58.239Z,3.3
2022-10-22T19:04:58.258Z,2.9
2022-10-22T19:07:58.281Z,3.3
2022-10-22T19:10:58.315Z,3.1
2022-10-22T19:13:58.307Z,3.4
2022-10-22T19:16:58.318Z,3.4
2022-10-22T19:19:58.340Z,3
2022-10-22T19:22:58.368Z,3.2
2022-10-22T19:25:58.391Z,3.4
2022-10-22T19:28:58.437Z,3.4
2022-10-22T19:31:58.507Z,4
2022-10-22T19:34:58.463Z,3.9
2022-10-22T19:37:58.485Z,4.1
2022-10-22T19:40:58.505Z,4.2
2022-10-22T19:43:58.521Z,4.4
2022-10-22T19:46:58.566Z,4.3
2022-10-22T19:49:58.607Z,3.9
2022-10-22T19:52:58.583Z,4.4
2022-10-22T19:55:58.605Z,4.8
2022-10-22T19:58:58.628Z,3.7
2022-10-22T20:01:58.746Z,4
2022-10-22T20:04:58.685Z,4.1
2022-10-22T20:07:58.678Z,3.7
2022-10-22T20:10:58.705Z,3.9
2022-10-22T20:13:58.731Z,3.5
2022-10-22T20:16:58.755Z,3.6
2022-10-22T20:19:58.783Z,3.3
2022-10-22T20:22:58.839Z,3.6
2022-10-22T20:25:58.839Z,3.6
2022-10-22T20:28:58.866Z,3.5
2022-10-22T20:31:58.884Z,3.5
2022-10-22T20:34:58.901Z,3.6
2022-10-22T20:37:58.910Z,3.6
2022-10-22T20:40:58.952Z,4
2022-10-22T20:43:58.954Z,4.5
2022-10-22T20:46:58.983Z,5.1
2022-10-22T20:49:58.994Z,6
2022-10-22T20:52:59.008Z,4.4
2022-10-22T20:55:59.129Z,3.6
2022-10-22T20:58:59.064Z,3.7
2022-10-22T21:01:59.061Z,3.4
2022-10-22T21:04:59.113Z,3.4
2022-10-22T21:07:59.107Z,3.3
2022-10-22T21:10:59.133Z,3.6
2022-10-22T21:13:59.157Z,3.6
2022-10-22T21:16:59.209Z,3.3
2022-10-22T21:19:59.288Z,3.3
2022-10-22T21:22:59.224Z,3.5
2022-10-22T21:25:59.240Z,3.8
2022-10-22T21:28:59.255Z,3.6
2022-10-22T21:31:59.272Z,3.8
2022-10-22T21:34:59.304Z,3.6
2022-10-22T21:37:59.292Z,3.9
2022-10-22T21:40:59.308Z,4.3
2022-10-22T21:43:59.322Z,3.7
2022-10-22T21:46:59.324Z,3.7
2022-10-22T21:49:59.328Z,3.5
2022-10-22T21:52:59.369Z,3.6
2022-10-22T21:55:59.363Z,3.9
2022-10-22T21:58:59.383Z,3.9
2022-10-22T22:02:02.128Z,4.2
2022-10-22T22:04:59.412Z,3.6
2022-10-22T22:07:59.421Z,4
2022-10-22T22:10:59.466Z,4.1
2022-10-22T22:13:59.447Z,4.2
2022-10-22T22:16:59.470Z,4.6
2022-10-22T22:19:59.480Z,4.5
2022-10-22T22:22:59.505Z,4.4
2022-10-22T22:25:59.508Z,4.6
2022-10-22T22:28:59.563Z,4.9
2022-10-22T22:31:59.535Z,5
2022-10-22T22:34:59.547Z,5.1
2022-10-22T22:37:59.554Z,5.2
2022-10-22T22:40:59.551Z,5.4
2022-10-22T22:43:59.605Z,5.5
2022-10-22T22:46:59.641Z,6.1
2022-10-22T22:49:59.626Z,5.6
2022-10-22T22:52:59.594Z,5.9
2022-10-22T22:55:59.598Z,6
2022-10-22T22:58:59.608Z,6.1
2022-10-22T23:01:59.607Z,6.2
2022-10-22T23:04:59.635Z,6.5
2022-10-22T23:07:59.624Z,6.5
2022-10-22T23:10:59.631Z,6.3
2022-10-22T23:13:59.644Z,6.5
2022-10-22T23:16:59.647Z,6.4
2022-10-22T23:19:59.645Z,6.5
2022-10-22T23:22:59.681Z,6.8
2022-10-22T23:25:59.661Z,6.9
2022-10-22T23:28:59.673Z,7.7
2022-10-22T23:31:59.695Z,7.1
2022-10-22T23:34:59.700Z,7.4
2022-10-22T23:37:59.706Z,7.7
2022-10-22T23:40:59.740Z,8.1
2022-10-22T23:43:59.714Z,8.1
2022-10-22T23:46:59.724Z,8.1
2022-10-22T23:49:59.731Z,8
2022-10-22T23:52:59.731Z,7.9
2022-10-22T23:55:59.747Z,8.6
2022-10-22T23:58:59.797Z,8.3
